sensor_id;sensor_type;location;lat;lon;timestamp;P1;durP1;ratioP1;P2;durP2;ratioP2
28427;SDS011;15662;49.128;8.520;2023-04-01T00:01:13;3.42;;;0.60;;
28427;SDS011;15662;49.128;8.520;2023-04-01T00:03:42;0.52;;;0.40;;
28427;SDS011;15662;49.128;8.520;2023-04-01T00:06:13;1.90;;;0.60;;
28427;SDS011;15662;49.128;8.520;2023-04-01T00:08:44;1.95;;;0.57;;
28427;SDS011;15662;49.128;8.520;2023-04-01T00:11:13;2.88;;;0.60;;
28427;SDS011;15662;49.128;8.520;2023-04-01T00:13:42;4.13;;;1.15;;
28427;SDS011;15662;49.128;8.520;2023-04-01T00:16:11;2.10;;;0.73;;
28427;SDS011;15662;49.128;8.520;2023-04-01T00:18:49;2.65;;;0.80;;
28427;SDS011;15662;49.128;8.520;2023-04-01T00:21:19;2.72;;;0.95;;
28427;SDS011;15662;49.128;8.520;2023-04-01T00:23:48;3.38;;;0.77;;
28427;SDS011;15662;49.128;8.520;2023-04-01T00:26:17;1.80;;;0.55;;
28427;SDS011;15662;49.128;8.520;2023-04-01T00:28:48;4.43;;;0.80;;
28427;SDS011;15662;49.128;8.520;2023-04-01T00:31:17;1.70;;;0.60;;
28427;SDS011;15662;49.128;8.520;2023-04-01T00:33:45;1.55;;;0.73;;
28427;SDS011;15662;49.128;8.520;2023-04-01T00:36:14;1.45;;;0.70;;
28427;SDS011;15662;49.128;8.520;2023-04-01T00:38:45;1.92;;;0.63;;
28427;SDS011;15662;49.128;8.520;2023-04-01T00:41:14;1.15;;;0.80;;
28427;SDS011;15662;49.128;8.520;2023-04-01T00:43:45;2.80;;;0.70;;
28427;SDS011;15662;49.128;8.520;2023-04-01T00:46:16;2.25;;;0.60;;
28427;SDS011;15662;49.128;8.520;2023-04-01T00:48:50;2.20;;;0.60;;
28427;SDS011;15662;49.128;8.520;2023-04-01T00:51:25;2.92;;;0.50;;
28427;SDS011;15662;49.128;8.520;2023-04-01T00:53:57;4.00;;;0.82;;
28427;SDS011;15662;49.128;8.520;2023-04-01T00:56:32;2.30;;;0.70;;
28427;SDS011;15662;49.128;8.520;2023-04-01T00:59:08;3.75;;;0.93;;
28427;SDS011;15662;49.128;8.520;2023-04-01T01:01:43;2.60;;;0.80;;
28427;SDS011;15662;49.128;8.520;2023-04-01T01:04:21;1.48;;;0.55;;
28427;SDS011;15662;49.128;8.520;2023-04-01T01:15:41;4.50;;;0.95;;
28427;SDS011;15662;49.128;8.520;2023-04-01T01:27:06;2.65;;;0.80;;
28427;SDS011;15662;49.128;8.520;2023-04-01T01:29:40;1.55;;;0.70;;
28427;SDS011;15662;49.128;8.520;2023-04-01T01:35:46;0.95;;;0.52;;
28427;SDS011;15662;49.128;8.520;2023-04-01T01:38:21;1.77;;;0.47;;
28427;SDS011;15662;49.128;8.520;2023-04-01T01:40:58;1.58;;;0.60;;
28427;SDS011;15662;49.128;8.520;2023-04-01T01:43:30;1.48;;;0.60;;
28427;SDS011;15662;49.128;8.520;2023-04-01T01:46:14;1.20;;;0.60;;
28427;SDS011;15662;49.128;8.520;2023-04-01T01:48:47;3.17;;;0.82;;
28427;SDS011;15662;49.128;8.520;2023-04-01T01:51:18;1.10;;;0.60;;
28427;SDS011;15662;49.128;8.520;2023-04-01T01:53:49;2.38;;;0.50;;
28427;SDS011;15662;49.128;8.520;2023-04-01T01:56:19;1.90;;;0.55;;
28427;SDS011;15662;49.128;8.520;2023-04-01T01:58:51;4.20;;;0.90;;
28427;SDS011;15662;49.128;8.520;2023-04-01T02:01:31;2.83;;;0.60;;
28427;SDS011;15662;49.128;8.520;2023-04-01T02:04:09;1.20;;;0.38;;
28427;SDS011;15662;49.128;8.520;2023-04-01T02:06:42;0.95;;;0.50;;
28427;SDS011;15662;49.128;8.520;2023-04-01T02:09:16;1.85;;;0.70;;
28427;SDS011;15662;49.128;8.520;2023-04-01T02:11:47;1.75;;;0.43;;
28427;SDS011;15662;49.128;8.520;2023-04-01T02:14:27;1.08;;;0.60;;
28427;SDS011;15662;49.128;8.520;2023-04-01T02:17:35;0.68;;;0.40;;
28427;SDS011;15662;49.128;8.520;2023-04-01T02:20:18;1.38;;;0.50;;
28427;SDS011;15662;49.128;8.520;2023-04-01T02:22:51;2.15;;;0.30;;
28427;SDS011;15662;49.128;8.520;2023-04-01T02:25:27;1.92;;;0.60;;
28427;SDS011;15662;49.128;8.520;2023-04-01T02:28:02;1.42;;;0.63;;
28427;SDS011;15662;49.128;8.520;2023-04-01T02:30:34;1.50;;;0.30;;
28427;SDS011;15662;49.128;8.520;2023-04-01T02:33:05;0.88;;;0.40;;
28427;SDS011;15662;49.128;8.520;2023-04-01T02:35:35;0.65;;;0.30;;
28427;SDS011;15662;49.128;8.520;2023-04-01T02:38:04;0.93;;;0.43;;
28427;SDS011;15662;49.128;8.520;2023-04-01T02:40:44;0.38;;;0.30;;
28427;SDS011;15662;49.128;8.520;2023-04-01T02:43:16;0.82;;;0.22;;
28427;SDS011;15662;49.128;8.520;2023-04-01T02:45:46;0.35;;;0.20;;
28427;SDS011;15662;49.128;8.520;2023-04-01T02:48:13;1.45;;;0.30;;
28427;SDS011;15662;49.128;8.520;2023-04-01T02:50:42;1.02;;;0.28;;
28427;SDS011;15662;49.128;8.520;2023-04-01T02:53:10;0.20;;;0.20;;
28427;SDS011;15662;49.128;8.520;2023-04-01T02:55:39;0.45;;;0.30;;
28427;SDS011;15662;49.128;8.520;2023-04-01T02:58:07;0.28;;;0.13;;
28427;SDS011;15662;49.128;8.520;2023-04-01T03:00:35;0.45;;;0.20;;
28427;SDS011;15662;49.128;8.520;2023-04-01T03:03:03;1.85;;;0.30;;
28427;SDS011;15662;49.128;8.520;2023-04-01T03:05:31;1.00;;;0.20;;
28427;SDS011;15662;49.128;8.520;2023-04-01T03:07:59;0.77;;;0.30;;
28427;SDS011;15662;49.128;8.520;2023-04-01T03:10:27;0.50;;;0.20;;
28427;SDS011;15662;49.128;8.520;2023-04-01T03:12:55;1.40;;;0.20;;
28427;SDS011;15662;49.128;8.520;2023-04-01T03:15:22;0.15;;;0.10;;
28427;SDS011;15662;49.128;8.520;2023-04-01T03:17:50;0.77;;;0.40;;
28427;SDS011;15662;49.128;8.520;2023-04-01T03:20:18;0.93;;;0.28;;
28427;SDS011;15662;49.128;8.520;2023-04-01T03:22:47;0.20;;;0.20;;
28427;SDS011;15662;49.128;8.520;2023-04-01T03:25:15;0.77;;;0.43;;
28427;SDS011;15662;49.128;8.520;2023-04-01T03:27:43;1.05;;;0.30;;
28427;SDS011;15662;49.128;8.520;2023-04-01T03:30:11;1.10;;;0.50;;
28427;SDS011;15662;49.128;8.520;2023-04-01T03:32:48;0.55;;;0.40;;
28427;SDS011;15662;49.128;8.520;2023-04-01T03:35:16;0.95;;;0.47;;
28427;SDS011;15662;49.128;8.520;2023-04-01T03:37:45;1.98;;;0.75;;
28427;SDS011;15662;49.128;8.520;2023-04-01T03:40:13;1.38;;;0.30;;
28427;SDS011;15662;49.128;8.520;2023-04-01T03:42:42;0.95;;;0.25;;
28427;SDS011;15662;49.128;8.520;2023-04-01T03:45:10;0.40;;;0.40;;
28427;SDS011;15662;49.128;8.520;2023-04-01T03:47:41;1.02;;;0.40;;
28427;SDS011;15662;49.128;8.520;2023-04-01T03:50:09;0.77;;;0.30;;
28427;SDS011;15662;49.128;8.520;2023-04-01T03:52:38;1.55;;;0.35;;
28427;SDS011;15662;49.128;8.520;2023-04-01T03:55:06;0.25;;;0.20;;
28427;SDS011;15662;49.128;8.520;2023-04-01T03:57:35;1.45;;;0.25;;
28427;SDS011;15662;49.128;8.520;2023-04-01T04:00:14;1.08;;;0.30;;
28427;SDS011;15662;49.128;8.520;2023-04-01T04:02:44;0.45;;;0.30;;
28427;SDS011;15662;49.128;8.520;2023-04-01T04:05:18;1.63;;;0.40;;
28427;SDS011;15662;49.128;8.520;2023-04-01T04:07:46;1.45;;;0.30;;
28427;SDS011;15662;49.128;8.520;2023-04-01T04:10:14;1.15;;;0.30;;
28427;SDS011;15662;49.128;8.520;2023-04-01T04:12:42;0.50;;;0.50;;
28427;SDS011;15662;49.128;8.520;2023-04-01T04:15:11;0.82;;;0.50;;
28427;SDS011;15662;49.128;8.520;2023-04-01T04:17:39;0.77;;;0.55;;
28427;SDS011;15662;49.128;8.520;2023-04-01T04:20:07;1.55;;;0.40;;
28427;SDS011;15662;49.128;8.520;2023-04-01T04:22:35;2.80;;;0.50;;
28427;SDS011;15662;49.128;8.520;2023-04-01T04:25:06;1.35;;;0.52;;
28427;SDS011;15662;49.128;8.520;2023-04-01T04:27:35;2.00;;;0.45;;
28427;SDS011;15662;49.128;8.520;2023-04-01T04:30:08;1.40;;;0.40;;
28427;SDS011;15662;49.128;8.520;2023-04-01T04:32:57;0.88;;;0.50;;
28427;SDS011;15662;49.128;8.520;2023-04-01T04:35:25;1.25;;;0.50;;
28427;SDS011;15662;49.128;8.520;2023-04-01T04:37:53;2.13;;;0.60;;
28427;SDS011;15662;49.128;8.520;2023-04-01T04:40:21;1.60;;;0.57;;
28427;SDS011;15662;49.128;8.520;2023-04-01T04:42:49;1.38;;;0.68;;
28427;SDS011;15662;49.128;8.520;2023-04-01T04:45:17;1.77;;;0.55;;
28427;SDS011;15662;49.128;8.520;2023-04-01T04:47:53;1.63;;;0.60;;
28427;SDS011;15662;49.128;8.520;2023-04-01T04:50:22;2.22;;;0.63;;
28427;SDS011;15662;49.128;8.520;2023-04-01T04:52:51;3.00;;;0.50;;
28427;SDS011;15662;49.128;8.520;2023-04-01T04:55:19;2.00;;;0.50;;
28427;SDS011;15662;49.128;8.520;2023-04-01T04:57:54;2.58;;;0.80;;
28427;SDS011;15662;49.128;8.520;2023-04-01T05:00:22;2.63;;;0.70;;
28427;SDS011;15662;49.128;8.520;2023-04-01T05:02:59;2.22;;;0.70;;
28427;SDS011;15662;49.128;8.520;2023-04-01T05:05:27;1.63;;;0.47;;
28427;SDS011;15662;49.128;8.520;2023-04-01T05:07:55;3.53;;;0.80;;
28427;SDS011;15662;49.128;8.520;2023-04-01T05:10:23;2.75;;;0.82;;
28427;SDS011;15662;49.128;8.520;2023-04-01T05:12:51;2.40;;;0.73;;
28427;SDS011;15662;49.128;8.520;2023-04-01T05:15:22;0.98;;;0.50;;
28427;SDS011;15662;49.128;8.520;2023-04-01T05:17:50;1.70;;;0.77;;
28427;SDS011;15662;49.128;8.520;2023-04-01T05:20:18;3.15;;;0.77;;
28427;SDS011;15662;49.128;8.520;2023-04-01T05:22:46;3.15;;;0.90;;
28427;SDS011;15662;49.128;8.520;2023-04-01T05:25:14;1.63;;;0.90;;
28427;SDS011;15662;49.128;8.520;2023-04-01T05:27:42;2.22;;;0.68;;
28427;SDS011;15662;49.128;8.520;2023-04-01T05:30:10;2.15;;;0.75;;
28427;SDS011;15662;49.128;8.520;2023-04-01T05:33:01;2.40;;;0.70;;
28427;SDS011;15662;49.128;8.520;2023-04-01T05:35:29;2.80;;;0.73;;
28427;SDS011;15662;49.128;8.520;2023-04-01T05:37:58;2.33;;;0.70;;
28427;SDS011;15662;49.128;8.520;2023-04-01T05:40:27;2.85;;;0.50;;
28427;SDS011;15662;49.128;8.520;2023-04-01T05:42:55;2.30;;;0.93;;
28427;SDS011;15662;49.128;8.520;2023-04-01T05:45:24;1.35;;;0.70;;
28427;SDS011;15662;49.128;8.520;2023-04-01T05:48:18;2.17;;;0.50;;
28427;SDS011;15662;49.128;8.520;2023-04-01T05:50:45;1.15;;;0.50;;
28427;SDS011;15662;49.128;8.520;2023-04-01T05:53:13;1.23;;;0.50;;
28427;SDS011;15662;49.128;8.520;2023-04-01T05:55:43;0.75;;;0.50;;
28427;SDS011;15662;49.128;8.520;2023-04-01T05:58:10;0.45;;;0.40;;
28427;SDS011;15662;49.128;8.520;2023-04-01T06:00:41;1.48;;;0.45;;
28427;SDS011;15662;49.128;8.520;2023-04-01T06:03:09;2.13;;;0.50;;
28427;SDS011;15662;49.128;8.520;2023-04-01T06:05:41;0.73;;;0.30;;
28427;SDS011;15662;49.128;8.520;2023-04-01T06:08:11;0.93;;;0.40;;
28427;SDS011;15662;49.128;8.520;2023-04-01T06:35:20;1.25;;;0.45;;
28427;SDS011;15662;49.128;8.520;2023-04-01T06:48:25;1.13;;;0.57;;
28427;SDS011;15662;49.128;8.520;2023-04-01T06:54:49;0.82;;;0.70;;
28427;SDS011;15662;49.128;8.520;2023-04-01T06:57:56;0.80;;;0.57;;
28427;SDS011;15662;49.128;8.520;2023-04-01T07:00:32;1.55;;;0.60;;
28427;SDS011;15662;49.128;8.520;2023-04-01T07:06:05;0.95;;;0.50;;
28427;SDS011;15662;49.128;8.520;2023-04-01T07:08:58;0.28;;;0.28;;
28427;SDS011;15662;49.128;8.520;2023-04-01T07:18:29;1.00;;;0.43;;
28427;SDS011;15662;49.128;8.520;2023-04-01T07:21:17;1.25;;;0.50;;
28427;SDS011;15662;49.128;8.520;2023-04-01T07:24:08;0.82;;;0.40;;
28427;SDS011;15662;49.128;8.520;2023-04-01T07:26:59;1.30;;;0.50;;
28427;SDS011;15662;49.128;8.520;2023-04-01T07:29:31;1.65;;;0.70;;
28427;SDS011;15662;49.128;8.520;2023-04-01T07:35:16;0.95;;;0.60;;
28427;SDS011;15662;49.128;8.520;2023-04-01T07:38:02;1.92;;;0.60;;
28427;SDS011;15662;49.128;8.520;2023-04-01T07:41:11;1.13;;;0.40;;
28427;SDS011;15662;49.128;8.520;2023-04-01T07:56:12;1.02;;;0.60;;
28427;SDS011;15662;49.128;8.520;2023-04-01T07:59:59;0.60;;;0.50;;
28427;SDS011;15662;49.128;8.520;2023-04-01T08:08:48;1.55;;;0.70;;
28427;SDS011;15662;49.128;8.520;2023-04-01T08:21:07;1.95;;;0.60;;
28427;SDS011;15662;49.128;8.520;2023-04-01T08:23:58;1.98;;;0.65;;
28427;SDS011;15662;49.128;8.520;2023-04-01T08:26:57;1.17;;;0.55;;
28427;SDS011;15662;49.128;8.520;2023-04-01T08:32:36;1.77;;;0.63;;
28427;SDS011;15662;49.128;8.520;2023-04-01T08:38:29;2.35;;;0.60;;
28427;SDS011;15662;49.128;8.520;2023-04-01T08:41:18;1.67;;;0.50;;
28427;SDS011;15662;49.128;8.520;2023-04-01T08:44:59;2.35;;;0.60;;
28427;SDS011;15662;49.128;8.520;2023-04-01T08:56:23;2.15;;;0.65;;
28427;SDS011;15662;49.128;8.520;2023-04-01T09:14:19;2.28;;;0.57;;
28427;SDS011;15662;49.128;8.520;2023-04-01T09:17:42;0.65;;;0.40;;
28427;SDS011;15662;49.128;8.520;2023-04-01T09:29:54;0.80;;;0.50;;
28427;SDS011;15662;49.128;8.520;2023-04-01T09:32:58;2.30;;;0.70;;
28427;SDS011;15662;49.128;8.520;2023-04-01T09:35:46;1.75;;;0.50;;
28427;SDS011;15662;49.128;8.520;2023-04-01T09:38:59;0.85;;;0.52;;
28427;SDS011;15662;49.128;8.520;2023-04-01T09:42:29;1.35;;;0.55;;
28427;SDS011;15662;49.128;8.520;2023-04-01T09:45:48;0.57;;;0.40;;
28427;SDS011;15662;49.128;8.520;2023-04-01T09:54:52;0.57;;;0.30;;
28427;SDS011;15662;49.128;8.520;2023-04-01T10:22:08;2.15;;;0.77;;
28427;SDS011;15662;49.128;8.520;2023-04-01T10:50:25;1.52;;;0.40;;
28427;SDS011;15662;49.128;8.520;2023-04-01T10:56:29;0.60;;;0.38;;
28427;SDS011;15662;49.128;8.520;2023-04-01T11:03:04;0.38;;;0.32;;
28427;SDS011;15662;49.128;8.520;2023-04-01T11:09:47;0.73;;;0.43;;
28427;SDS011;15662;49.128;8.520;2023-04-01T11:34:26;0.73;;;0.50;;
28427;SDS011;15662;49.128;8.520;2023-04-01T11:40:54;0.88;;;0.40;;
28427;SDS011;15662;49.128;8.520;2023-04-01T11:44:25;1.08;;;0.30;;
28427;SDS011;15662;49.128;8.520;2023-04-01T11:53:55;1.48;;;0.52;;
28427;SDS011;15662;49.128;8.520;2023-04-01T12:21:34;0.60;;;0.60;;
28427;SDS011;15662;49.128;8.520;2023-04-01T12:27:16;0.60;;;0.60;;
28427;SDS011;15662;49.128;8.520;2023-04-01T12:30:18;0.43;;;0.40;;
28427;SDS011;15662;49.128;8.520;2023-04-01T12:36:31;0.30;;;0.30;;
28427;SDS011;15662;49.128;8.520;2023-04-01T12:46:05;1.05;;;0.40;;
28427;SDS011;15662;49.128;8.520;2023-04-01T12:52:05;0.70;;;0.30;;
28427;SDS011;15662;49.128;8.520;2023-04-01T13:04:35;0.43;;;0.40;;
28427;SDS011;15662;49.128;8.520;2023-04-01T13:28:06;0.50;;;0.45;;
28427;SDS011;15662;49.128;8.520;2023-04-01T13:43:04;0.77;;;0.40;;
28427;SDS011;15662;49.128;8.520;2023-04-01T14:10:02;0.52;;;0.50;;
28427;SDS011;15662;49.128;8.520;2023-04-01T14:13:41;0.75;;;0.60;;
28427;SDS011;15662;49.128;8.520;2023-04-01T14:50:16;0.77;;;0.77;;
28427;SDS011;15662;49.128;8.520;2023-04-01T14:58:41;1.55;;;0.68;;
28427;SDS011;15662;49.128;8.520;2023-04-01T15:01:37;0.70;;;0.70;;
28427;SDS011;15662;49.128;8.520;2023-04-01T15:08:10;0.70;;;0.70;;
28427;SDS011;15662;49.128;8.520;2023-04-01T15:17:48;0.70;;;0.70;;
28427;SDS011;15662;49.128;8.520;2023-04-01T15:41:50;1.25;;;0.60;;
28427;SDS011;15662;49.128;8.520;2023-04-01T15:45:17;0.82;;;0.80;;
28427;SDS011;15662;49.128;8.520;2023-04-01T15:48:04;0.60;;;0.47;;
28427;SDS011;15662;49.128;8.520;2023-04-01T15:51:06;1.40;;;0.60;;
28427;SDS011;15662;49.128;8.520;2023-04-01T15:54:55;1.67;;;0.50;;
28427;SDS011;15662;49.128;8.520;2023-04-01T15:57:11;0.73;;;0.73;;
28427;SDS011;15662;49.128;8.520;2023-04-01T16:00:12;1.15;;;0.60;;
28427;SDS011;15662;49.128;8.520;2023-04-01T16:09:09;1.20;;;1.10;;
28427;SDS011;15662;49.128;8.520;2023-04-01T16:18:29;1.92;;;0.75;;
28427;SDS011;15662;49.128;8.520;2023-04-01T16:28:24;1.00;;;0.77;;
28427;SDS011;15662;49.128;8.520;2023-04-01T16:34:06;2.20;;;1.00;;
28427;SDS011;15662;49.128;8.520;2023-04-01T16:37:09;0.70;;;0.70;;
28427;SDS011;15662;49.128;8.520;2023-04-01T16:39:58;1.17;;;0.93;;
28427;SDS011;15662;49.128;8.520;2023-04-01T16:49:03;1.83;;;0.90;;
28427;SDS011;15662;49.128;8.520;2023-04-01T16:55:02;1.45;;;0.70;;
28427;SDS011;15662;49.128;8.520;2023-04-01T16:57:52;1.42;;;0.90;;
28427;SDS011;15662;49.128;8.520;2023-04-01T17:03:39;1.63;;;0.75;;
28427;SDS011;15662;49.128;8.520;2023-04-01T17:09:28;1.02;;;1.00;;
28427;SDS011;15662;49.128;8.520;2023-04-01T17:13:26;1.63;;;0.90;;
28427;SDS011;15662;49.128;8.520;2023-04-01T17:15:57;1.23;;;0.80;;
28427;SDS011;15662;49.128;8.520;2023-04-01T17:30:50;1.08;;;0.57;;
28427;SDS011;15662;49.128;8.520;2023-04-01T17:33:49;0.70;;;0.60;;
28427;SDS011;15662;49.128;8.520;2023-04-01T17:39:33;1.33;;;1.23;;
28427;SDS011;15662;49.128;8.520;2023-04-01T17:42:52;1.38;;;0.82;;
28427;SDS011;15662;49.128;8.520;2023-04-01T17:46:23;1.52;;;1.25;;
28427;SDS011;15662;49.128;8.520;2023-04-01T17:49:23;2.22;;;1.13;;
28427;SDS011;15662;49.128;8.520;2023-04-01T17:52:07;0.93;;;0.75;;
28427;SDS011;15662;49.128;8.520;2023-04-01T18:01:02;2.90;;;1.30;;
28427;SDS011;15662;49.128;8.520;2023-04-01T18:16:26;1.13;;;0.80;;
28427;SDS011;15662;49.128;8.520;2023-04-01T18:22:28;0.80;;;0.70;;
28427;SDS011;15662;49.128;8.520;2023-04-01T18:25:12;2.45;;;1.08;;
28427;SDS011;15662;49.128;8.520;2023-04-01T18:31:04;1.90;;;0.90;;
28427;SDS011;15662;49.128;8.520;2023-04-01T18:37:17;0.90;;;0.90;;
28427;SDS011;15662;49.128;8.520;2023-04-01T18:46:07;0.70;;;0.68;;
28427;SDS011;15662;49.128;8.520;2023-04-01T18:51:43;1.00;;;0.90;;
28427;SDS011;15662;49.128;8.520;2023-04-01T18:57:11;0.73;;;0.60;;
28427;SDS011;15662;49.128;8.520;2023-04-01T19:02:58;1.15;;;0.73;;
28427;SDS011;15662;49.128;8.520;2023-04-01T19:05:34;1.17;;;1.00;;
28427;SDS011;15662;49.128;8.520;2023-04-01T19:17:56;2.60;;;1.67;;
28427;SDS011;15662;49.128;8.520;2023-04-01T19:26:42;2.22;;;1.30;;
28427;SDS011;15662;49.128;8.520;2023-04-01T19:36:00;1.45;;;1.30;;
28427;SDS011;15662;49.128;8.520;2023-04-01T19:38:41;2.47;;;1.20;;
28427;SDS011;15662;49.128;8.520;2023-04-01T19:41:49;1.63;;;1.00;;
28427;SDS011;15662;49.128;8.520;2023-04-01T19:44:45;1.77;;;1.00;;
28427;SDS011;15662;49.128;8.520;2023-04-01T19:50:46;2.90;;;1.20;;
28427;SDS011;15662;49.128;8.520;2023-04-01T19:57:06;2.75;;;1.08;;
28427;SDS011;15662;49.128;8.520;2023-04-01T20:00:06;1.48;;;0.90;;
28427;SDS011;15662;49.128;8.520;2023-04-01T20:03:44;2.15;;;1.10;;
28427;SDS011;15662;49.128;8.520;2023-04-01T20:06:50;2.05;;;1.23;;
28427;SDS011;15662;49.128;8.520;2023-04-01T20:16:02;4.43;;;1.10;;
28427;SDS011;15662;49.128;8.520;2023-04-01T20:19:00;1.70;;;0.93;;
28427;SDS011;15662;49.128;8.520;2023-04-01T20:21:34;1.55;;;1.15;;
28427;SDS011;15662;49.128;8.520;2023-04-01T20:24:23;2.20;;;0.95;;
28427;SDS011;15662;49.128;8.520;2023-04-01T20:27:14;1.77;;;0.90;;
28427;SDS011;15662;49.128;8.520;2023-04-01T20:35:57;1.30;;;0.70;;
28427;SDS011;15662;49.128;8.520;2023-04-01T20:39:04;2.08;;;0.70;;
28427;SDS011;15662;49.128;8.520;2023-04-01T20:42:20;2.78;;;0.82;;
28427;SDS011;15662;49.128;8.520;2023-04-01T20:48:04;2.28;;;0.60;;
28427;SDS011;15662;49.128;8.520;2023-04-01T20:51:09;1.55;;;0.70;;
28427;SDS011;15662;49.128;8.520;2023-04-01T20:57:14;0.75;;;0.75;;
28427;SDS011;15662;49.128;8.520;2023-04-01T21:00:20;3.28;;;1.00;;
28427;SDS011;15662;49.128;8.520;2023-04-01T21:03:23;2.03;;;0.70;;
28427;SDS011;15662;49.128;8.520;2023-04-01T21:06:06;0.63;;;0.50;;
28427;SDS011;15662;49.128;8.520;2023-04-01T21:09:26;0.82;;;0.68;;
28427;SDS011;15662;49.128;8.520;2023-04-01T21:17:54;1.08;;;0.90;;
28427;SDS011;15662;49.128;8.520;2023-04-01T21:26:26;2.22;;;0.70;;
28427;SDS011;15662;49.128;8.520;2023-04-01T21:29:19;2.65;;;0.75;;
28427;SDS011;15662;49.128;8.520;2023-04-01T21:32:29;1.00;;;0.60;;
28427;SDS011;15662;49.128;8.520;2023-04-01T22:06:32;1.08;;;0.70;;
28427;SDS011;15662;49.128;8.520;2023-04-01T22:09:11;1.40;;;0.65;;
28427;SDS011;15662;49.128;8.520;2023-04-01T22:18:19;1.08;;;0.73;;
28427;SDS011;15662;49.128;8.520;2023-04-01T22:23:51;2.30;;;0.65;;
28427;SDS011;15662;49.128;8.520;2023-04-01T22:26:38;1.05;;;0.60;;
28427;SDS011;15662;49.128;8.520;2023-04-01T22:29:34;1.45;;;0.60;;
28427;SDS011;15662;49.128;8.520;2023-04-01T22:32:59;0.70;;;0.70;;
28427;SDS011;15662;49.128;8.520;2023-04-01T22:41:37;0.57;;;0.57;;
28427;SDS011;15662;49.128;8.520;2023-04-01T22:47:54;0.70;;;0.45;;
28427;SDS011;15662;49.128;8.520;2023-04-01T22:50:35;0.85;;;0.60;;
28427;SDS011;15662;49.128;8.520;2023-04-01T22:53:21;0.50;;;0.50;;
28427;SDS011;15662;49.128;8.520;2023-04-01T22:55:59;0.85;;;0.60;;
28427;SDS011;15662;49.128;8.520;2023-04-01T22:58:32;0.63;;;0.50;;
28427;SDS011;15662;49.128;8.520;2023-04-01T23:01:10;0.80;;;0.40;;
28427;SDS011;15662;49.128;8.520;2023-04-01T23:03:43;0.50;;;0.50;;
28427;SDS011;15662;49.128;8.520;2023-04-01T23:06:20;0.52;;;0.50;;
28427;SDS011;15662;49.128;8.520;2023-04-01T23:09:00;0.65;;;0.60;;
28427;SDS011;15662;49.128;8.520;2023-04-01T23:11:54;1.20;;;0.70;;
28427;SDS011;15662;49.128;8.520;2023-04-01T23:20:17;1.70;;;0.60;;
28427;SDS011;15662;49.128;8.520;2023-04-01T23:23:25;0.60;;;0.40;;
28427;SDS011;15662;49.128;8.520;2023-04-01T23:26:33;0.32;;;0.32;;
28427;SDS011;15662;49.128;8.520;2023-04-01T23:29:37;0.52;;;0.40;;
28427;SDS011;15662;49.128;8.520;2023-04-01T23:32:13;1.98;;;0.57;;
28427;SDS011;15662;49.128;8.520;2023-04-01T23:34:54;0.73;;;0.45;;
28427;SDS011;15662;49.128;8.520;2023-04-01T23:37:25;0.50;;;0.50;;
28427;SDS011;15662;49.128;8.520;2023-04-01T23:39:54;1.05;;;0.50;;
28427;SDS011;15662;49.128;8.520;2023-04-01T23:42:29;0.55;;;0.50;;
28427;SDS011;15662;49.128;8.520;2023-04-01T23:45:13;0.70;;;0.35;;
28427;SDS011;15662;49.128;8.520;2023-04-01T23:47:47;0.50;;;0.50;;
28427;SDS011;15662;49.128;8.520;2023-04-01T23:50:19;1.35;;;0.47;;
28427;SDS011;15662;49.128;8.520;2023-04-01T23:53:00;0.70;;;0.40;;
28427;SDS011;15662;49.128;8.520;2023-04-01T23:55:52;1.50;;;0.47;;
28427;SDS011;15662;49.128;8.520;2023-04-01T23:58:22;0.80;;;0.40;;
